Time;durP1;ratioP1;P1;durP2;ratioP2;P2;SDS_P1;SDS_P2;PMS_P1;PMS_P2;Temp;Humidity;BMP_temperature;BMP_pressure;BME280_temperature;BME280_humidity;BME280_pressure;Samples;Min_cycle;Max_cycle;Signal;HPM_P1;HPM_P2
2023/01/29 00:01:03;;;;;;;30.30;18.13;;;-3.30;99.90;;;;;;5083159;28;20196;-78
2023/01/29 00:03:29;;;;;;;35.47;19.67;;;-3.30;99.90;;;;;;5100384;28;20249;-78
2023/01/29 00:05:54;;;;;;;29.50;17.13;;;-3.40;99.90;;;;;;5100179;28;20676;-78
2023/01/29 00:08:20;;;;;;;33.60;18.17;;;-3.40;99.90;;;;;;5101530;28;20195;-78
2023/01/29 00:10:46;;;;;;;31.47;18.57;;;-3.30;99.90;;;;;;5100874;28;20188;-78
2023/01/29 00:13:11;;;;;;;29.57;17.90;;;-3.40;99.90;;;;;;5083298;28;20219;-78
2023/01/29 00:15:37;;;;;;;35.20;20.03;;;-3.40;99.90;;;;;;5081513;28;20177;-78
2023/01/29 00:18:02;;;;;;;34.70;19.70;;;-3.40;99.90;;;;;;5101631;28;20203;-78
2023/01/29 00:20:28;;;;;;;30.27;18.10;;;-3.40;99.90;;;;;;5101043;28;20194;-78
2023/01/29 00:22:53;;;;;;;29.30;16.47;;;-3.50;99.90;;;;;;5102167;28;20169;-78
2023/01/29 00:25:19;;;;;;;33.83;18.97;;;-3.40;99.90;;;;;;5083147;28;20240;-78
2023/01/29 00:27:44;;;;;;;31.53;17.97;;;-3.50;99.90;;;;;;5101199;28;20183;-78
2023/01/29 00:30:13;;;;;;;32.13;17.70;;;-3.50;99.90;;;;;;5100533;28;20194;-78
2023/01/29 00:32:39;;;;;;;37.93;18.80;;;-3.50;99.90;;;;;;5101117;28;20164;-79
2023/01/29 00:35:06;;;;;;;33.80;18.47;;;-3.40;99.90;;;;;;5100873;28;20205;-78
2023/01/29 00:37:32;;;;;;;35.40;17.13;;;-3.60;99.90;;;;;;5101064;28;20202;-78
2023/01/29 00:39:58;;;;;;;29.30;17.60;;;-3.50;99.90;;;;;;5100757;28;20602;-78
2023/01/29 00:45:09;;;;;;;31.30;18.07;;;-3.60;99.90;;;;;;5100011;28;20159;-78
2023/01/29 00:47:35;;;;;;;32.53;17.90;;;-3.50;99.90;;;;;;5099930;28;20173;-78
2023/01/29 00:50:04;;;;;;;31.17;18.70;;;-3.50;99.90;;;;;;5100895;28;20578;-77
2023/01/29 00:52:29;;;;;;;31.47;17.73;;;-3.60;99.90;;;;;;5099371;28;20177;-78
2023/01/29 00:54:57;;;;;;;31.37;18.40;;;-3.60;99.90;;;;;;5100682;28;20206;-78
2023/01/29 00:57:25;;;;;;;30.67;18.63;;;-3.70;99.90;;;;;;5098100;28;20194;-78
2023/01/29 00:59:51;;;;;;;33.17;18.60;;;-3.70;99.90;;;;;;5094447;28;20283;-79
2023/01/29 01:05:02;;;;;;;32.07;17.77;;;-3.60;99.90;;;;;;5095125;28;20197;-77
2023/01/29 01:07:28;;;;;;;32.60;19.03;;;-3.60;99.90;;;;;;5093452;28;20555;-78
2023/01/29 01:12:38;;;;;;;36.20;18.90;;;-3.60;99.90;;;;;;5095293;28;20216;-78
2023/01/29 01:15:04;;;;;;;31.03;17.67;;;-3.60;99.90;;;;;;5098066;28;20180;-77
2023/01/29 01:17:29;;;;;;;29.77;17.93;;;-3.60;99.90;;;;;;5081032;28;20273;-78
2023/01/29 01:19:55;;;;;;;32.43;19.17;;;-3.60;99.90;;;;;;5100526;28;20658;-78
2023/01/29 01:22:20;;;;;;;31.40;18.73;;;-3.70;99.90;;;;;;5099789;28;20170;-78
2023/01/29 01:24:46;;;;;;;30.07;17.37;;;-3.70;99.90;;;;;;5097813;28;20166;-78
2023/01/29 01:27:12;;;;;;;30.37;16.40;;;-3.70;99.90;;;;;;5099308;28;20202;-78
2023/01/29 01:29:37;;;;;;;30.40;17.97;;;-3.70;99.90;;;;;;5095617;28;20235;-78
2023/01/29 01:32:04;;;;;;;34.20;18.23;;;-3.70;99.90;;;;;;5094982;28;20175;-78
2023/01/29 01:34:30;;;;;;;26.47;17.23;;;-3.70;99.90;;;;;;5081761;28;20201;-77
2023/01/29 01:36:56;;;;;;;32.50;18.87;;;-3.80;99.90;;;;;;5099414;28;20167;-78
2023/01/29 01:39:24;;;;;;;31.40;17.57;;;-3.80;99.90;;;;;;5097590;28;20292;-78
2023/01/29 01:41:53;;;;;;;32.43;18.63;;;-3.80;99.90;;;;;;5082718;28;20173;-79
2023/01/29 01:44:52;;;;;;;32.63;19.03;;;-3.80;99.90;;;;;;5081117;28;20170;-78
2023/01/29 01:47:22;;;;;;;30.60;17.40;;;-3.70;99.90;;;;;;5099356;28;20171;-78
2023/01/29 01:49:48;;;;;;;32.10;18.13;;;-3.80;99.90;;;;;;5098595;28;20186;-78
2023/01/29 01:52:16;;;;;;;33.90;19.10;;;-3.80;99.90;;;;;;5102661;28;20536;-77
2023/01/29 01:54:42;;;;;;;28.40;17.57;;;-3.80;99.90;;;;;;5098269;28;20172;-79
2023/01/29 01:57:16;;;;;;;31.83;18.10;;;-3.80;99.90;;;;;;5094302;28;20190;-78
2023/01/29 01:59:46;;;;;;;33.13;18.73;;;-3.90;99.90;;;;;;5099931;28;20185;-78
2023/01/29 02:10:36;;;;;;;31.23;17.10;;;-3.90;99.90;;;;;;5097916;28;20197;-78
2023/01/29 02:13:03;;;;;;;31.57;17.67;;;-3.90;99.90;;;;;;5098141;28;20151;-78
2023/01/29 02:15:29;;;;;;;32.13;17.70;;;-3.90;99.90;;;;;;5097563;28;20244;-78
2023/01/29 02:17:55;;;;;;;35.07;19.13;;;-3.90;99.90;;;;;;5097845;28;20198;-78
2023/01/29 02:20:25;;;;;;;33.67;20.30;;;-3.90;99.90;;;;;;5095924;28;20578;-78
2023/01/29 02:22:55;;;;;;;34.73;19.17;;;-3.90;99.90;;;;;;5097740;28;20156;-78
2023/01/29 02:25:23;;;;;;;33.23;19.53;;;-3.70;99.90;;;;;;5094946;28;20178;-78
2023/01/29 02:28:13;;;;;;;32.50;18.47;;;-3.80;99.90;;;;;;5095294;28;20202;-78
2023/01/29 02:30:49;;;;;;;33.27;18.60;;;-3.80;99.90;;;;;;5096487;28;20213;-78
2023/01/29 02:33:43;;;;;;;35.57;18.77;;;-3.80;99.90;;;;;;5095714;28;20227;-78
2023/01/29 02:36:27;;;;;;;30.30;17.30;;;-3.90;99.90;;;;;;5096107;28;20696;-77
2023/01/29 02:39:01;;;;;;;41.20;18.83;;;-3.80;99.90;;;;;;5095728;28;20544;-77
2023/01/29 02:41:55;;;;;;;35.93;17.80;;;-3.90;99.90;;;;;;5097382;28;20198;-77
2023/01/29 02:44:48;;;;;;;33.50;19.20;;;-3.90;99.90;;;;;;5089420;28;20644;-78
2023/01/29 02:47:23;;;;;;;33.30;18.07;;;-3.90;99.90;;;;;;5097110;28;20155;-78
2023/01/29 02:49:56;;;;;;;30.63;17.47;;;-3.90;99.90;;;;;;5096178;28;20277;-78
2023/01/29 02:52:36;;;;;;;34.03;18.00;;;-3.90;99.90;;;;;;5096304;28;20157;-78
2023/01/29 02:55:22;;;;;;;35.23;18.07;;;-3.90;99.90;;;;;;5077755;28;20162;-79
2023/01/29 02:57:51;;;;;;;33.80;18.00;;;-3.90;99.90;;;;;;5095995;28;20212;-78
2023/01/29 03:00:20;;;;;;;32.03;19.40;;;-3.90;99.90;;;;;;5096451;28;20206;-78
2023/01/29 03:02:52;;;;;;;38.67;18.73;;;-3.90;99.90;;;;;;5077762;28;20273;-77
2023/01/29 03:05:26;;;;;;;32.07;18.03;;;-3.90;99.90;;;;;;5078846;28;20194;-78
2023/01/29 03:07:59;;;;;;;36.40;19.63;;;-4.00;99.90;;;;;;5094310;28;20220;-78
2023/01/29 03:10:33;;;;;;;30.67;17.93;;;-4.00;99.90;;;;;;5095110;28;20691;-78
2023/01/29 03:13:08;;;;;;;33.60;19.00;;;-4.00;99.90;;;;;;5095084;28;20150;-78
2023/01/29 03:15:41;;;;;;;33.97;18.93;;;-4.00;99.90;;;;;;5095231;28;20193;-78
2023/01/29 03:18:21;;;;;;;34.80;18.97;;;-4.00;99.90;;;;;;5095385;28;20674;-78
2023/01/29 03:20:51;;;;;;;31.20;18.90;;;-4.00;99.90;;;;;;5095544;28;20268;-77
2023/01/29 03:23:46;;;;;;;35.67;19.73;;;-4.10;99.90;;;;;;5081765;28;20257;-78
2023/01/29 03:34:37;;;;;;;34.80;18.37;;;-4.10;99.90;;;;;;5099962;28;20215;-78
2023/01/29 03:37:12;;;;;;;30.03;17.97;;;-4.10;99.90;;;;;;5080279;28;20174;-77
2023/01/29 03:39:39;;;;;;;40.03;19.60;;;-4.10;99.90;;;;;;5094700;28;20243;-77
2023/01/29 03:42:30;;;;;;;35.63;20.37;;;-4.10;99.90;;;;;;5095944;28;20162;-77
2023/01/29 03:44:59;;;;;;;35.63;19.70;;;-4.00;99.90;;;;;;5096245;28;20147;-77
2023/01/29 03:48:03;;;;;;;35.37;19.43;;;-4.00;99.90;;;;;;5094592;28;20179;-77
2023/01/29 03:50:38;;;;;;;35.83;18.13;;;-4.00;99.90;;;;;;5095940;28;20212;-77
2023/01/29 03:53:26;;;;;;;35.17;19.47;;;-3.90;99.90;;;;;;5077964;28;20174;-76
2023/01/29 03:56:11;;;;;;;34.23;20.23;;;-3.90;99.90;;;;;;5096311;28;20216;-79
2023/01/29 03:58:54;;;;;;;33.60;18.57;;;-3.90;99.90;;;;;;5096170;28;20191;-77
2023/01/29 04:01:26;;;;;;;36.20;20.43;;;-3.90;99.90;;;;;;5096038;28;20545;-77
2023/01/29 04:03:54;;;;;;;37.40;20.63;;;-4.00;99.90;;;;;;5095833;28;20210;-77
2023/01/29 04:06:26;;;;;;;36.30;20.57;;;-4.00;99.90;;;;;;5094750;28;20171;-77
2023/01/29 04:09:06;;;;;;;36.47;19.63;;;-4.00;99.90;;;;;;5105365;28;20194;-78
2023/01/29 04:11:36;;;;;;;36.57;21.20;;;-4.00;99.90;;;;;;5085783;28;20701;-77
2023/01/29 04:14:02;;;;;;;39.23;20.77;;;-4.00;99.90;;;;;;5096086;28;20199;-77
2023/01/29 04:16:34;;;;;;;37.97;20.23;;;-4.00;99.90;;;;;;5095317;28;20209;-76
2023/01/29 04:19:00;;;;;;;39.73;21.60;;;-4.10;99.90;;;;;;5093906;28;20190;-77
2023/01/29 04:21:26;;;;;;;36.37;20.83;;;-4.00;99.90;;;;;;5095258;28;20178;-77
2023/01/29 04:23:53;;;;;;;37.87;20.47;;;-4.00;99.90;;;;;;5095574;28;20196;-77
2023/01/29 04:26:23;;;;;;;34.13;19.00;;;-4.00;99.90;;;;;;5095401;28;20506;-77
2023/01/29 04:28:52;;;;;;;41.10;20.90;;;-4.00;99.90;;;;;;5093815;28;20216;-78
2023/01/29 04:31:27;;;;;;;38.40;20.40;;;-4.00;99.90;;;;;;5095193;28;20675;-78
2023/01/29 04:34:18;;;;;;;41.13;21.27;;;-4.00;99.90;;;;;;5093679;28;20646;-77
2023/01/29 04:36:56;;;;;;;38.80;21.50;;;-4.00;99.90;;;;;;5093781;28;20645;-77
2023/01/29 04:39:28;;;;;;;35.20;20.00;;;-4.00;99.90;;;;;;5093589;28;20241;-77
2023/01/29 04:42:12;;;;;;;37.00;20.87;;;-4.00;99.90;;;;;;5093538;28;20593;-77
2023/01/29 04:45:00;;;;;;;32.17;17.67;;;-4.00;99.90;;;;;;5093749;28;20168;-77
2023/01/29 04:47:48;;;;;;;36.37;20.53;;;-3.90;99.90;;;;;;5076786;28;20265;-77
2023/01/29 04:50:25;;;;;;;35.50;19.37;;;-4.00;99.90;;;;;;5093410;28;20206;-78
2023/01/29 04:53:15;;;;;;;37.00;19.93;;;-3.90;99.90;;;;;;5094708;28;20169;-77
2023/01/29 04:55:50;;;;;;;43.10;19.87;;;-3.90;99.90;;;;;;5094822;28;20170;-77
2023/01/29 04:58:31;;;;;;;36.77;20.87;;;-3.90;99.90;;;;;;5094723;28;20666;-77
2023/01/29 05:00:59;;;;;;;36.77;20.17;;;-3.80;99.90;;;;;;5076442;28;20282;-77
2023/01/29 05:03:26;;;;;;;33.57;18.50;;;-3.70;99.90;;;;;;5094694;28;20186;-77
2023/01/29 05:05:54;;;;;;;39.10;19.90;;;-3.70;99.90;;;;;;5093309;28;20178;-78
2023/01/29 05:08:23;;;;;;;40.50;20.07;;;-3.70;99.90;;;;;;5094391;28;20213;-77
2023/01/29 05:10:50;;;;;;;42.43;21.73;;;-3.50;99.90;;;;;;5076119;28;20547;-77
2023/01/29 05:13:19;;;;;;;35.30;19.47;;;-3.50;99.90;;;;;;5095538;28;20174;-78
2023/01/29 05:16:00;;;;;;;36.60;20.57;;;-3.40;99.90;;;;;;5096154;28;20171;-78
2023/01/29 05:18:27;;;;;;;38.97;22.17;;;-3.40;99.90;;;;;;5079477;28;20256;-77
2023/01/29 05:20:55;;;;;;;38.67;20.20;;;-3.30;99.90;;;;;;5096897;28;20278;-78
2023/01/29 05:23:22;;;;;;;37.67;21.37;;;-3.20;99.90;;;;;;5097828;28;20162;-78
2023/01/29 05:25:50;;;;;;;41.60;22.00;;;-3.20;99.90;;;;;;5097685;28;20222;-78
2023/01/29 05:28:16;;;;;;;41.27;21.50;;;-3.10;99.90;;;;;;5096359;28;20178;-78
2023/01/29 05:30:47;;;;;;;39.90;21.40;;;-3.10;99.90;;;;;;5097417;28;20251;-78
2023/01/29 05:33:17;;;;;;;42.40;22.00;;;-3.00;99.90;;;;;;5097281;28;20513;-77
2023/01/29 05:35:43;;;;;;;41.03;22.27;;;-3.00;99.90;;;;;;5096580;28;20171;-78
2023/01/29 05:38:09;;;;;;;37.53;21.30;;;-3.00;99.90;;;;;;5097175;28;20627;-78
2023/01/29 05:40:35;;;;;;;45.27;22.70;;;-2.90;99.90;;;;;;5095598;28;20190;-78
2023/01/29 05:43:01;;;;;;;39.77;21.73;;;-2.90;99.90;;;;;;5096130;28;20185;-77
2023/01/29 05:45:26;;;;;;;45.50;23.30;;;-2.80;99.90;;;;;;5097239;28;20175;-78
2023/01/29 05:47:58;;;;;;;45.57;23.63;;;-2.80;99.90;;;;;;5097618;28;20202;-79
2023/01/29 05:50:25;;;;;;;40.47;22.23;;;-2.70;99.90;;;;;;5098126;28;20267;-78
2023/01/29 05:52:59;;;;;;;42.17;23.10;;;-2.70;99.90;;;;;;5098515;28;20181;-78
2023/01/29 05:55:24;;;;;;;45.27;24.27;;;-2.70;99.90;;;;;;5097822;28;20174;-77
2023/01/29 05:57:50;;;;;;;46.07;23.40;;;-2.60;99.90;;;;;;5097529;28;20213;-78
2023/01/29 06:00:16;;;;;;;48.03;25.30;;;-2.60;99.90;;;;;;5097146;28;20197;-77
2023/01/29 06:02:42;;;;;;;47.30;24.40;;;-2.60;99.90;;;;;;5097679;28;20518;-78
2023/01/29 06:05:08;;;;;;;42.13;23.00;;;-2.50;99.90;;;;;;5097979;28;20173;-77
2023/01/29 06:07:33;;;;;;;43.30;23.30;;;-2.50;99.90;;;;;;5097215;28;20187;-78
2023/01/29 06:09:59;;;;;;;40.00;21.60;;;-2.40;99.90;;;;;;5095993;28;20195;-79
2023/01/29 06:12:26;;;;;;;42.80;23.07;;;-2.40;99.90;;;;;;5097028;28;20189;-77
2023/01/29 06:14:51;;;;;;;42.30;24.07;;;-2.40;99.90;;;;;;5097725;28;20729;-78
2023/01/29 06:17:17;;;;;;;41.80;22.53;;;-2.30;99.90;;;;;;5096622;28;20206;-78
2023/01/29 06:19:42;;;;;;;41.43;22.57;;;-2.30;99.90;;;;;;5097330;28;20197;-77
2023/01/29 06:22:08;;;;;;;43.77;24.00;;;-2.30;99.90;;;;;;5096384;28;20274;-77
2023/01/29 06:24:34;;;;;;;48.70;24.60;;;-2.30;99.90;;;;;;5100399;28;20174;-78
2023/01/29 06:26:59;;;;;;;44.73;23.83;;;-2.20;99.90;;;;;;5099852;28;20177;-78
2023/01/29 06:29:25;;;;;;;41.90;23.87;;;-2.20;99.90;;;;;;5101747;28;20201;-78
2023/01/29 06:31:50;;;;;;;40.37;21.97;;;-2.20;99.90;;;;;;5105152;28;20180;-78
2023/01/29 06:34:16;;;;;;;46.13;24.10;;;-2.10;99.90;;;;;;5097475;28;20657;-78
2023/01/29 06:36:42;;;;;;;43.53;23.93;;;-2.10;99.90;;;;;;5097008;28;20181;-78
2023/01/29 06:39:07;;;;;;;42.13;22.20;;;-2.10;99.90;;;;;;5079484;28;20211;-78
2023/01/29 06:41:33;;;;;;;42.30;22.70;;;-2.00;99.90;;;;;;5077067;28;20708;-78
2023/01/29 06:43:59;;;;;;;47.90;25.97;;;-2.00;99.90;;;;;;5095544;28;20259;-78
2023/01/29 06:46:24;;;;;;;43.20;22.73;;;-2.00;99.90;;;;;;5094139;28;20201;-77
2023/01/29 06:48:50;;;;;;;41.77;22.90;;;-2.00;99.90;;;;;;5074581;28;20199;-77
2023/01/29 06:51:16;;;;;;;45.13;24.03;;;-1.90;99.90;;;;;;5091379;28;20185;-76
2023/01/29 06:53:41;;;;;;;45.23;23.90;;;-1.90;99.90;;;;;;5092639;28;20199;-77
2023/01/29 06:56:07;;;;;;;42.80;23.70;;;-1.90;99.90;;;;;;5093382;28;20267;-77
2023/01/29 06:58:36;;;;;;;49.40;25.87;;;-1.90;99.90;;;;;;5096500;28;20213;-77
2023/01/29 07:01:06;;;;;;;42.60;23.53;;;-1.90;99.90;;;;;;5095232;28;20735;-77
2023/01/29 07:03:32;;;;;;;44.17;24.10;;;-1.90;99.90;;;;;;5096437;28;20169;-77
2023/01/29 07:05:57;;;;;;;41.67;23.03;;;-1.90;99.90;;;;;;5095235;28;20220;-77
2023/01/29 07:08:23;;;;;;;43.40;22.87;;;-1.80;99.90;;;;;;5096336;28;20245;-76
2023/01/29 07:10:49;;;;;;;41.20;22.23;;;-1.80;99.90;;;;;;5096278;28;20233;-77
2023/01/29 07:13:15;;;;;;;44.90;23.03;;;-1.80;99.90;;;;;;5096260;28;20269;-77
2023/01/29 07:15:41;;;;;;;41.63;23.90;;;-1.80;99.90;;;;;;5096441;28;20216;-78
2023/01/29 07:18:10;;;;;;;43.80;23.37;;;-1.80;99.90;;;;;;5095962;28;20288;-76
2023/01/29 07:20:36;;;;;;;50.77;24.53;;;-1.80;99.90;;;;;;5096039;28;20249;-77
2023/01/29 07:23:02;;;;;;;47.43;22.83;;;-1.70;99.90;;;;;;5096327;28;20637;-77
2023/01/29 07:25:29;;;;;;;43.80;23.37;;;-1.70;99.90;;;;;;5096022;28;20180;-77
2023/01/29 07:27:54;;;;;;;45.23;23.47;;;-1.70;99.90;;;;;;5095185;28;20562;-77
2023/01/29 07:30:21;;;;;;;41.07;23.73;;;-1.70;99.90;;;;;;5094421;28;20205;-76
2023/01/29 07:32:46;;;;;;;49.63;25.60;;;-1.70;99.90;;;;;;5095958;28;20173;-76
2023/01/29 07:35:12;;;;;;;51.77;25.40;;;-1.60;99.90;;;;;;5094747;28;20181;-77
2023/01/29 07:37:37;;;;;;;45.97;23.77;;;-1.60;99.90;;;;;;5095788;28;20734;-77
2023/01/29 07:40:09;;;;;;;46.57;24.87;;;-1.60;99.90;;;;;;5095988;28;20189;-76
2023/01/29 07:42:34;;;;;;;45.90;23.80;;;-1.60;99.90;;;;;;5096355;28;20354;-76
2023/01/29 07:45:00;;;;;;;48.27;24.83;;;-1.50;99.90;;;;;;5094462;28;20759;-77
2023/01/29 07:47:25;;;;;;;47.63;24.03;;;-1.60;99.90;;;;;;5095721;28;20173;-76
2023/01/29 07:49:54;;;;;;;49.57;25.37;;;-1.50;99.90;;;;;;5095627;28;20201;-76
2023/01/29 07:52:19;;;;;;;42.60;23.57;;;-1.50;99.90;;;;;;5095495;28;20229;-76
2023/01/29 07:54:45;;;;;;;46.03;25.47;;;-1.50;99.90;;;;;;5095268;28;20179;-77
2023/01/29 07:57:10;;;;;;;46.43;23.83;;;-1.40;99.90;;;;;;5093948;28;20546;-77
2023/01/29 07:59:36;;;;;;;44.13;24.87;;;-1.20;99.90;;;;;;5077080;28;20193;-76
2023/01/29 08:02:01;;;;;;;40.57;22.70;;;-1.40;99.90;;;;;;5095441;28;20163;-77
2023/01/29 08:04:27;;;;;;;42.17;23.73;;;-1.30;99.90;;;;;;5095104;28;20221;-76
2023/01/29 08:06:52;;;;;;;48.93;24.83;;;-1.30;99.90;;;;;;5094612;28;20166;-77
2023/01/29 08:09:18;;;;;;;51.10;25.30;;;-1.30;99.90;;;;;;5076921;28;20590;-77
2023/01/29 08:11:43;;;;;;;47.83;24.83;;;-1.20;99.90;;;;;;5076945;28;20245;-76
2023/01/29 08:14:09;;;;;;;50.07;25.33;;;-1.20;99.90;;;;;;5095344;28;20591;-77
2023/01/29 08:16:35;;;;;;;50.90;24.43;;;-1.20;99.90;;;;;;5093533;28;20176;-77
2023/01/29 08:19:03;;;;;;;48.90;24.87;;;-1.20;99.90;;;;;;5094810;28;20303;-76
2023/01/29 08:21:29;;;;;;;46.63;24.43;;;-1.10;99.90;;;;;;5094812;28;20182;-76
2023/01/29 08:23:54;;;;;;;51.17;24.73;;;-1.10;99.90;;;;;;5095192;28;20173;-76
2023/01/29 08:26:20;;;;;;;50.63;26.50;;;-1.10;99.90;;;;;;5094916;28;20381;-77
2023/01/29 08:28:45;;;;;;;45.77;24.60;;;-1.10;99.90;;;;;;5094817;28;20177;-77
2023/01/29 08:31:19;;;;;;;51.23;24.87;;;-1.10;99.90;;;;;;5094635;28;20176;-75
2023/01/29 08:33:45;;;;;;;44.53;23.90;;;-1.00;99.90;;;;;;5093328;28;20267;-77
2023/01/29 08:36:11;;;;;;;48.50;24.67;;;-1.00;99.90;;;;;;5094773;28;20605;-77
2023/01/29 08:38:37;;;;;;;51.50;25.70;;;-1.00;99.90;;;;;;5094532;28;20573;-76
2023/01/29 08:41:02;;;;;;;53.63;27.57;;;-1.00;99.90;;;;;;5093233;28;20197;-78
2023/01/29 08:43:28;;;;;;;47.97;24.67;;;-1.00;99.90;;;;;;5096263;28;20168;-76
2023/01/29 08:45:53;;;;;;;41.07;23.90;;;-1.00;99.90;;;;;;5099175;28;20165;-77
2023/01/29 08:48:19;;;;;;;46.07;24.00;;;-1.00;99.90;;;;;;5098535;28;20185;-76
2023/01/29 08:50:44;;;;;;;47.93;25.30;;;-0.90;99.90;;;;;;5076179;28;20200;-76
2023/01/29 08:53:10;;;;;;;45.53;24.90;;;-0.90;99.90;;;;;;5093039;28;20259;-76
2023/01/29 08:55:38;;;;;;;46.67;25.23;;;-0.90;99.90;;;;;;5092886;28;20271;-77
2023/01/29 08:58:08;;;;;;;46.73;25.40;;;-0.80;99.90;;;;;;5094046;28;20207;-77
2023/01/29 09:00:34;;;;;;;48.67;25.30;;;-0.80;99.90;;;;;;5075877;28;20197;-76
2023/01/29 09:03:00;;;;;;;48.37;26.60;;;-0.80;99.90;;;;;;5094078;28;20184;-77
2023/01/29 09:05:26;;;;;;;48.60;25.50;;;-0.80;99.90;;;;;;5076076;28;20173;-76
2023/01/29 09:07:52;;;;;;;51.37;26.00;;;-0.80;99.90;;;;;;5094094;28;20197;-76
2023/01/29 09:10:18;;;;;;;47.13;25.43;;;-0.70;99.90;;;;;;5093787;28;20610;-76
2023/01/29 09:12:44;;;;;;;52.80;27.03;;;-0.70;99.90;;;;;;5093908;28;20187;-76
2023/01/29 09:15:10;;;;;;;47.20;24.97;;;-0.70;99.90;;;;;;5075543;28;20527;-76
2023/01/29 09:17:35;;;;;;;50.23;26.67;;;-0.70;99.90;;;;;;5093059;28;20203;-77
2023/01/29 09:20:01;;;;;;;47.47;24.93;;;-0.70;99.90;;;;;;5091458;28;20281;-76
2023/01/29 09:22:27;;;;;;;49.33;26.73;;;-0.60;99.90;;;;;;5093936;28;20222;-76
2023/01/29 09:24:52;;;;;;;49.93;25.47;;;-0.60;99.90;;;;;;5092431;28;20181;-76
2023/01/29 09:27:18;;;;;;;48.53;26.03;;;-0.60;99.90;;;;;;5093618;28;20178;-75
2023/01/29 09:29:44;;;;;;;43.63;24.70;;;-0.50;99.90;;;;;;5093539;28;20726;-76
2023/01/29 09:32:09;;;;;;;46.87;25.00;;;-0.60;99.90;;;;;;5093670;28;20173;-77
2023/01/29 09:34:35;;;;;;;50.87;27.03;;;-0.50;99.90;;;;;;5092238;28;20646;-77
2023/01/29 09:37:00;;;;;;;45.20;25.30;;;-0.50;99.90;;;;;;5093439;28;20177;-77
2023/01/29 09:39:26;;;;;;;50.37;25.20;;;-0.40;99.90;;;;;;5093250;28;20310;-77
2023/01/29 09:42:06;;;;;;;47.00;25.20;;;-0.50;99.90;;;;;;5093502;28;20545;-77
2023/01/29 09:44:50;;;;;;;46.03;24.70;;;-0.40;99.90;;;;;;5092043;28;20180;-77
2023/01/29 09:47:18;;;;;;;50.97;24.53;;;-0.40;99.90;;;;;;5091975;28;20183;-76
2023/01/29 09:49:52;;;;;;;47.03;26.30;;;-0.30;99.90;;;;;;5093221;28;20186;-77
2023/01/29 09:52:22;;;;;;;46.37;24.87;;;-0.30;99.90;;;;;;5093177;28;20150;-75
2023/01/29 09:55:02;;;;;;;42.93;23.77;;;-0.30;99.90;;;;;;5093206;28;20205;-77
2023/01/29 09:57:52;;;;;;;43.30;24.13;;;-0.20;99.90;;;;;;5092055;28;20591;-77
2023/01/29 10:00:55;;;;;;;45.37;23.37;;;-0.20;99.90;;;;;;5092634;28;20205;-76
2023/01/29 10:03:50;;;;;;;44.70;25.07;;;-0.10;99.90;;;;;;5093113;28;20171;-76
2023/01/29 10:06:34;;;;;;;41.70;23.20;;;0.00;99.90;;;;;;5093153;28;20192;-76
2023/01/29 10:09:45;;;;;;;47.10;24.30;;;0.00;99.90;;;;;;5091779;28;20224;-77
2023/01/29 10:12:32;;;;;;;46.07;24.70;;;0.00;99.90;;;;;;5091873;28;20169;-77
2023/01/29 10:15:16;;;;;;;46.33;24.17;;;0.10;99.90;;;;;;5092993;28;20170;-76
2023/01/29 10:17:55;;;;;;;42.90;23.67;;;0.10;99.90;;;;;;5091770;28;20247;-77
2023/01/29 10:20:44;;;;;;;45.03;24.43;;;0.20;99.90;;;;;;5093172;28;20193;-77
2023/01/29 10:23:30;;;;;;;43.80;24.83;;;0.20;99.90;;;;;;5093491;28;20154;-77
2023/01/29 10:25:56;;;;;;;40.43;22.57;;;0.20;99.90;;;;;;5091883;28;20169;-77
2023/01/29 10:28:30;;;;;;;47.87;24.73;;;0.30;99.90;;;;;;5093619;28;20193;-77
2023/01/29 10:31:05;;;;;;;43.67;23.50;;;0.30;99.90;;;;;;5095241;28;20216;-77
2023/01/29 10:33:45;;;;;;;42.83;22.03;;;0.40;99.90;;;;;;5097717;28;20545;-77
2023/01/29 10:36:19;;;;;;;47.53;25.63;;;0.40;99.90;;;;;;5097765;28;20180;-77
2023/01/29 10:38:47;;;;;;;44.10;24.53;;;0.40;99.90;;;;;;5096962;28;20268;-77
2023/01/29 10:41:41;;;;;;;43.80;22.97;;;0.50;99.90;;;;;;5097384;28;20170;-77
2023/01/29 10:44:21;;;;;;;41.87;22.23;;;0.50;99.90;;;;;;5097299;28;20524;-77
2023/01/29 10:46:47;;;;;;;47.93;25.03;;;0.50;99.90;;;;;;5096067;28;20547;-77
2023/01/29 10:49:44;;;;;;;47.17;24.57;;;0.60;99.90;;;;;;5097152;28;20190;-76
2023/01/29 10:52:23;;;;;;;46.23;24.70;;;0.60;99.90;;;;;;5096165;28;20265;-77
2023/01/29 10:55:04;;;;;;;42.40;24.07;;;0.70;99.90;;;;;;5097448;28;20162;-77
2023/01/29 10:57:41;;;;;;;48.30;25.53;;;0.60;99.90;;;;;;5095541;28;20616;-78
2023/01/29 11:00:23;;;;;;;44.63;23.77;;;0.70;99.90;;;;;;5097823;28;20235;-77
2023/01/29 11:02:50;;;;;;;44.93;23.30;;;0.70;99.90;;;;;;5099726;28;20154;-79
2023/01/29 11:05:22;;;;;;;41.13;23.63;;;0.70;99.90;;;;;;5103016;28;20162;-76
2023/01/29 11:08:00;;;;;;;42.30;22.37;;;0.70;99.90;;;;;;5097777;28;20201;-76
2023/01/29 11:10:28;;;;;;;43.57;23.73;;;0.70;99.90;;;;;;5097215;28;20693;-77
2023/01/29 11:12:54;;;;;;;45.00;23.30;;;0.70;99.90;;;;;;5100302;28;20241;-78
2023/01/29 11:15:30;;;;;;;45.33;24.60;;;0.80;99.90;;;;;;5100452;28;20208;-77
2023/01/29 11:18:12;;;;;;;44.90;23.60;;;0.70;99.90;;;;;;5101664;28;20349;-79
2023/01/29 11:20:40;;;;;;;42.50;23.07;;;0.80;99.90;;;;;;5099364;28;20652;-78
2023/01/29 11:23:21;;;;;;;42.97;23.30;;;0.80;99.90;;;;;;5101412;28;20165;-78
2023/01/29 11:25:52;;;;;;;42.37;23.03;;;0.80;99.90;;;;;;5100349;28;20163;-78
2023/01/29 11:28:41;;;;;;;42.77;23.30;;;0.90;99.90;;;;;;5099827;28;20520;-78
2023/01/29 11:31:26;;;;;;;41.97;21.83;;;0.90;99.90;;;;;;5100829;28;20201;-79
2023/01/29 11:34:15;;;;;;;45.07;24.27;;;0.90;99.90;;;;;;5100785;28;20170;-78
2023/01/29 11:36:41;;;;;;;46.50;23.60;;;0.90;99.90;;;;;;5101486;28;20186;-78
2023/01/29 11:39:20;;;;;;;45.97;24.90;;;0.90;99.90;;;;;;5099647;28;20279;-78
2023/01/29 11:41:58;;;;;;;44.40;24.37;;;0.90;99.90;;;;;;5097172;28;20149;-78
2023/01/29 11:44:30;;;;;;;42.03;23.33;;;1.00;99.90;;;;;;5098440;28;20162;-77
2023/01/29 11:47:26;;;;;;;42.37;23.00;;;1.00;99.90;;;;;;5097917;28;20174;-78
2023/01/29 11:50:00;;;;;;;41.90;22.33;;;1.00;99.90;;;;;;5096595;28;20206;-78
2023/01/29 11:52:39;;;;;;;45.17;25.07;;;1.00;99.90;;;;;;5096173;28;20209;-77
2023/01/29 11:55:18;;;;;;;40.97;23.03;;;1.00;99.90;;;;;;5097340;28;20154;-78
2023/01/29 11:57:50;;;;;;;42.63;23.23;;;1.00;99.90;;;;;;5095269;28;20250;-78
2023/01/29 12:00:18;;;;;;;44.13;22.70;;;1.10;99.90;;;;;;5095249;28;20273;-77
2023/01/29 12:03:28;;;;;;;42.87;23.17;;;1.10;99.90;;;;;;5093889;28;20170;-77
2023/01/29 12:05:58;;;;;;;35.93;20.53;;;1.10;99.90;;;;;;5095088;28;20641;-78
2023/01/29 12:08:26;;;;;;;44.37;23.27;;;1.10;99.90;;;;;;5095060;28;20204;-78
2023/01/29 12:11:23;;;;;;;37.93;21.60;;;1.20;99.90;;;;;;5095089;28;20187;-79
2023/01/29 12:13:54;;;;;;;41.23;21.67;;;1.20;99.90;;;;;;5094403;28;20167;-77
2023/01/29 12:16:58;;;;;;;41.00;21.97;;;1.20;99.90;;;;;;5095634;28;20228;-78
2023/01/29 12:19:49;;;;;;;40.10;21.13;;;1.20;99.90;;;;;;5034534;28;20214;-77
2023/01/29 12:22:32;;;;;;;41.77;23.13;;;1.20;99.90;;;;;;5095485;28;20190;-77
2023/01/29 12:25:00;;;;;;;43.33;22.93;;;1.30;99.90;;;;;;5095969;28;20155;-78
2023/01/29 12:27:45;;;;;;;41.57;22.07;;;1.30;99.90;;;;;;5094463;28;20174;-77
2023/01/29 12:30:23;;;;;;;42.67;22.73;;;1.30;99.90;;;;;;5096949;28;20200;-76
2023/01/29 12:33:19;;;;;;;41.43;22.00;;;1.40;99.90;;;;;;5079974;28;20162;-78
2023/01/29 12:35:53;;;;;;;40.60;22.43;;;1.40;99.90;;;;;;5096866;28;20185;-78
2023/01/29 12:38:21;;;;;;;42.50;22.77;;;1.40;99.90;;;;;;5078927;28;20251;-77
2023/01/29 12:41:03;;;;;;;46.27;23.30;;;1.40;99.90;;;;;;5095862;28;20272;-78
2023/01/29 12:43:52;;;;;;;43.30;22.97;;;1.40;99.90;;;;;;5095579;28;20623;-77
2023/01/29 12:46:30;;;;;;;40.27;22.20;;;1.50;99.90;;;;;;5095982;28;20238;-78
2023/01/29 12:49:00;;;;;;;46.93;23.07;;;1.50;97.60;;;;;;5095467;28;20618;-78
2023/01/29 12:51:32;;;;;;;40.27;22.53;;;1.50;92.50;;;;;;5094275;28;20261;-78
2023/01/29 12:54:13;;;;;;;39.67;22.20;;;1.60;97.70;;;;;;5095479;28;20249;-78
2023/01/29 12:56:46;;;;;;;39.13;22.17;;;1.50;31.50;;;;;;5095039;28;20259;-78
2023/01/29 12:59:19;;;;;;;38.13;20.93;;;1.60;27.90;;;;;;5094737;28;20720;-77
2023/01/29 13:02:07;;;;;;;40.90;22.83;;;1.60;21.00;;;;;;5095470;28;20194;-78
2023/01/29 13:04:38;;;;;;;38.93;21.57;;;1.60;7.00;;;;;;5066641;28;20261;-78
2023/01/29 13:07:17;;;;;;;40.53;21.77;;;1.60;1.00;;;;;;5096327;28;20575;-78
2023/01/29 13:09:49;;;;;;;42.47;23.20;;;1.70;1.00;;;;;;5095293;28;20678;-77
2023/01/29 13:12:20;;;;;;;41.97;22.53;;;1.70;1.00;;;;;;5097596;28;20169;-78
2023/01/29 13:15:01;;;;;;;43.17;22.70;;;1.70;1.00;;;;;;5077858;28;20177;-78
2023/01/29 13:17:41;;;;;;;43.03;23.90;;;1.70;1.00;;;;;;5096359;28;20583;-77
2023/01/29 13:20:28;;;;;;;40.63;21.23;;;1.70;1.00;;;;;;5082033;28;20190;-77